Vedic City, Iowa
Current Conditions -  °F | °C
As of 5:15 AM on Tuesday 21 Oct 2014 (Local Time) from KFFL Reporting Station
NA  
Wind Chill: 38°   Ceiling: NA
Heat Index: 41°   Visibility: NA
Dew Point: 37°   Wind: 5mph
Humidity: 87%   Direction: 50°NE
Pressure: 30.1"   Gusts: NA
Location:  40.9879°N, 91.8924°W
Report Text: KFFL 211015Z AUTO 05004KT 05/03 A3010 RMK AO2
Loading
Personal Weather Stations






























Interactive Weather Map
Tropical Storm Tracking
New forecast layout! Learn more

10-Day Weather Forecast

Advertisements
Track Severe Weather on mobile